Time;durP1;ratioP1;P1;durP2;ratioP2;P2;SDS_P1;SDS_P2;PMS_P1;PMS_P2;Temp;Humidity;BMP_temperature;BMP_pressure;BME280_temperature;BME280_humidity;BME280_pressure;Samples;Min_cycle;Max_cycle;Signal;HPM_P1;HPM_P2
2024/03/09 00:00:20;;;;;;;0.70;0.70;;;-1.00;99.90;;;;;;5094443;28;20241;-77
2024/03/09 00:02:50;;;;;;;0.80;0.80;;;-0.90;99.90;;;;;;5094412;28;20673;-76
2024/03/09 00:05:19;;;;;;;0.75;0.75;;;-0.90;99.90;;;;;;5094458;28;20200;-77
2024/03/09 00:07:45;;;;;;;0.73;0.73;;;-0.90;99.90;;;;;;5094360;28;20195;-78
2024/03/09 00:10:11;;;;;;;0.80;0.80;;;-0.90;99.90;;;;;;5076241;28;20188;-77
2024/03/09 00:12:39;;;;;;;0.60;0.60;;;-0.90;99.90;;;;;;5094272;28;20181;-78
2024/03/09 00:15:08;;;;;;;0.70;0.70;;;-0.90;99.90;;;;;;5076070;28;20588;-77
2024/03/09 00:17:34;;;;;;;1.45;1.35;;;-0.90;99.90;;;;;;5094100;28;20203;-77
2024/03/09 00:20:00;;;;;;;0.70;0.70;;;-0.80;99.90;;;;;;5094194;28;20558;-77
2024/03/09 00:22:29;;;;;;;0.65;0.65;;;-0.80;99.90;;;;;;5075597;28;20200;-76
2024/03/09 00:24:55;;;;;;;0.80;0.80;;;-0.80;99.90;;;;;;5093999;28;20271;-77
2024/03/09 00:27:24;;;;;;;0.82;0.82;;;-0.90;99.90;;;;;;5093850;28;20586;-77
2024/03/09 00:29:56;;;;;;;0.63;0.63;;;-0.90;99.90;;;;;;5094077;28;20555;-78
2024/03/09 00:32:22;;;;;;;0.70;0.70;;;-0.90;99.90;;;;;;5093830;28;20215;-77
2024/03/09 00:34:48;;;;;;;0.70;0.70;;;-0.90;99.90;;;;;;5093944;28;20550;-77
2024/03/09 00:37:14;;;;;;;0.88;0.88;;;-0.80;99.90;;;;;;5093834;28;20279;-77
2024/03/09 00:39:42;;;;;;;0.82;0.82;;;-0.80;99.90;;;;;;5093628;28;20324;-77
2024/03/09 00:42:09;;;;;;;0.70;0.70;;;-0.80;99.90;;;;;;5093340;28;20232;-77
2024/03/09 00:44:35;;;;;;;0.77;0.77;;;-0.80;99.90;;;;;;5093563;28;20554;-77
2024/03/09 00:47:01;;;;;;;0.80;0.80;;;-0.80;99.90;;;;;;5092970;28;20725;-77
2024/03/09 00:49:31;;;;;;;0.70;0.70;;;-0.80;99.90;;;;;;5075285;28;20198;-77
2024/03/09 00:52:00;;;;;;;0.70;0.70;;;-0.80;99.90;;;;;;5093664;28;20234;-77
2024/03/09 00:54:26;;;;;;;0.65;0.65;;;-0.80;99.90;;;;;;5093292;28;20192;-77
2024/03/09 00:56:52;;;;;;;0.70;0.70;;;-0.70;99.90;;;;;;5075285;28;20633;-77
2024/03/09 00:59:19;;;;;;;0.77;0.77;;;-0.70;99.90;;;;;;5075121;28;20196;-77
2024/03/09 01:01:45;;;;;;;1.00;1.00;;;-0.70;99.90;;;;;;5075127;28;20234;-77
2024/03/09 01:04:10;;;;;;;0.70;0.70;;;-0.70;99.90;;;;;;5075341;28;20200;-75
2024/03/09 01:06:37;;;;;;;0.70;0.70;;;-0.80;99.90;;;;;;5093015;28;20253;-75
2024/03/09 01:09:03;;;;;;;0.80;0.80;;;-0.80;99.90;;;;;;5093143;28;20644;-75
2024/03/09 01:11:30;;;;;;;0.70;0.70;;;-0.80;99.90;;;;;;5093000;28;20241;-75
2024/03/09 01:13:56;;;;;;;0.75;0.75;;;-0.80;99.90;;;;;;5093127;28;20648;-75
2024/03/09 01:16:22;;;;;;;0.70;0.70;;;-0.80;99.90;;;;;;5093060;28;20196;-75
2024/03/09 01:18:49;;;;;;;0.60;0.60;;;-0.80;99.90;;;;;;5093091;28;20281;-75
2024/03/09 01:21:15;;;;;;;0.68;0.68;;;-0.80;99.90;;;;;;5093065;28;20296;-75
2024/03/09 01:23:40;;;;;;;0.70;0.70;;;-0.90;99.90;;;;;;5074806;28;20668;-75
2024/03/09 01:26:09;;;;;;;0.70;0.70;;;-0.90;99.90;;;;;;5092814;28;20214;-75
2024/03/09 01:28:36;;;;;;;0.85;0.85;;;-0.90;99.90;;;;;;5092905;28;20636;-75
2024/03/09 01:31:05;;;;;;;0.80;0.80;;;-0.90;99.90;;;;;;5092998;28;20184;-75
2024/03/09 01:33:31;;;;;;;0.60;0.60;;;-0.80;99.90;;;;;;5074433;28;20207;-75
2024/03/09 01:36:04;;;;;;;0.60;0.60;;;-0.80;99.90;;;;;;5093187;28;20697;-75
2024/03/09 01:38:30;;;;;;;0.70;0.70;;;-0.80;99.90;;;;;;5092282;28;20222;-75
2024/03/09 01:40:55;;;;;;;0.70;0.70;;;-0.80;99.90;;;;;;5092807;28;20220;-75
2024/03/09 01:43:23;;;;;;;0.70;0.70;;;-0.80;99.90;;;;;;5092456;28;20219;-75
2024/03/09 01:45:49;;;;;;;0.80;0.80;;;-0.80;99.90;;;;;;5092710;28;20613;-75
2024/03/09 01:48:20;;;;;;;0.70;0.70;;;-0.80;99.90;;;;;;5074636;28;20793;-75
2024/03/09 01:50:46;;;;;;;0.60;0.60;;;-0.80;99.90;;;;;;5074686;28;20191;-75
2024/03/09 01:53:13;;;;;;;0.80;0.80;;;-0.80;99.90;;;;;;5092575;28;20195;-75
2024/03/09 01:55:39;;;;;;;0.70;0.70;;;-0.80;99.90;;;;;;5092587;28;20195;-74
2024/03/09 01:58:06;;;;;;;0.70;0.70;;;-0.80;99.90;;;;;;5075498;28;20663;-74
2024/03/09 02:00:37;;;;;;;0.60;0.60;;;-0.80;99.90;;;;;;5096791;28;20222;-74
2024/03/09 02:03:08;;;;;;;0.60;0.60;;;-0.80;99.90;;;;;;5078174;28;20208;-74
2024/03/09 02:05:36;;;;;;;0.70;0.70;;;-0.70;99.90;;;;;;5077808;28;20268;-74
2024/03/09 02:08:05;;;;;;;0.80;0.80;;;-0.80;99.90;;;;;;5095874;28;20692;-74
2024/03/09 02:10:31;;;;;;;0.73;0.73;;;-0.70;99.90;;;;;;5096034;28;20275;-75
2024/03/09 02:12:57;;;;;;;0.60;0.60;;;-0.70;99.90;;;;;;5096559;28;20545;-74
2024/03/09 02:15:29;;;;;;;0.70;0.70;;;-0.70;99.90;;;;;;5078405;28;20454;-71
2024/03/09 02:17:56;;;;;;;0.73;0.73;;;-0.70;99.90;;;;;;5096605;28;20188;-73
2024/03/09 02:20:25;;;;;;;0.70;0.70;;;-0.60;99.90;;;;;;5095914;28;20184;-73
2024/03/09 02:22:54;;;;;;;0.70;0.70;;;-0.70;99.90;;;;;;5096725;28;20275;-72
2024/03/09 02:25:27;;;;;;;0.63;0.63;;;-0.70;99.90;;;;;;5096219;28;20215;-72
2024/03/09 02:27:52;;;;;;;0.60;0.60;;;-0.70;99.90;;;;;;5112231;28;20196;-71
2024/03/09 02:30:21;;;;;;;0.90;0.90;;;-0.70;99.90;;;;;;5096112;28;20282;-72
2024/03/09 02:32:52;;;;;;;0.70;0.70;;;-0.70;99.90;;;;;;5095714;28;20274;-71
2024/03/09 02:35:17;;;;;;;0.75;0.75;;;-0.70;99.90;;;;;;5075916;28;20669;-72
2024/03/09 02:37:43;;;;;;;0.80;0.80;;;-0.70;99.90;;;;;;5075758;28;20195;-71
2024/03/09 02:40:12;;;;;;;0.70;0.70;;;-0.70;99.90;;;;;;5075883;28;20195;-71
2024/03/09 02:43:04;;;;;;;0.75;0.75;;;-0.70;99.90;;;;;;5057733;28;20571;-72
2024/03/09 02:45:30;;;;;;;0.60;0.60;;;-0.70;99.90;;;;;;5075270;28;20552;-72
2024/03/09 02:47:56;;;;;;;0.80;0.80;;;-0.70;99.90;;;;;;5075926;28;20185;-72
2024/03/09 02:50:26;;;;;;;0.70;0.70;;;-0.70;99.90;;;;;;5075561;28;20692;-72
2024/03/09 02:52:52;;;;;;;0.75;0.75;;;-0.70;99.90;;;;;;5075465;28;20189;-72
2024/03/09 02:55:18;;;;;;;0.80;0.80;;;-0.60;99.90;;;;;;5075495;28;20715;-72
2024/03/09 02:57:44;;;;;;;0.70;0.70;;;-0.70;99.90;;;;;;5075391;28;20193;-72
2024/03/09 03:00:12;;;;;;;0.65;0.65;;;-0.70;99.90;;;;;;5075508;28;20246;-72
2024/03/09 03:05:25;;;;;;;0.60;0.60;;;-0.60;99.90;;;;;;5095439;28;20716;-73
2024/03/09 03:07:53;;;;;;;0.68;0.68;;;-0.60;99.90;;;;;;5095615;28;20192;-72
2024/03/09 03:10:19;;;;;;;0.70;0.70;;;-0.70;99.90;;;;;;5094493;28;20200;-71
2024/03/09 03:12:46;;;;;;;0.73;0.73;;;-0.70;99.90;;;;;;5095469;28;20562;-71
2024/03/09 03:15:14;;;;;;;0.70;0.70;;;-0.60;99.90;;;;;;5077389;28;20188;-71
2024/03/09 03:17:41;;;;;;;0.60;0.60;;;-0.60;99.90;;;;;;5095216;28;20548;-71
2024/03/09 03:20:09;;;;;;;0.80;0.80;;;-0.60;99.90;;;;;;5095206;28;20185;-72
2024/03/09 03:22:38;;;;;;;0.90;0.90;;;-0.60;99.90;;;;;;5095268;28;20199;-72
2024/03/09 03:25:05;;;;;;;0.80;0.80;;;-0.60;99.90;;;;;;5077009;28;20200;-74
2024/03/09 03:27:41;;;;;;;0.77;0.77;;;-0.60;99.90;;;;;;5095084;28;20245;-75
2024/03/09 03:30:16;;;;;;;0.70;0.70;;;-0.60;99.90;;;;;;5094663;28;20257;-77
2024/03/09 03:32:43;;;;;;;0.80;0.80;;;-0.60;99.90;;;;;;5095062;28;20274;-77
2024/03/09 03:35:11;;;;;;;0.60;0.60;;;-0.60;99.90;;;;;;5095531;28;20277;-77
2024/03/09 03:37:36;;;;;;;0.70;0.70;;;-0.60;99.90;;;;;;5094888;28;20595;-75
2024/03/09 03:40:06;;;;;;;0.70;0.70;;;-0.50;99.90;;;;;;5076763;28;20189;-76
2024/03/09 03:42:33;;;;;;;0.70;0.70;;;-0.50;99.90;;;;;;5094838;28;20184;-75
2024/03/09 03:44:59;;;;;;;0.60;0.60;;;-0.50;99.90;;;;;;5094697;28;20204;-75
2024/03/09 03:47:24;;;;;;;0.65;0.65;;;-0.50;99.90;;;;;;5094116;28;20243;-75
2024/03/09 03:49:50;;;;;;;0.63;0.63;;;-0.50;99.90;;;;;;5076659;28;20625;-75
2024/03/09 03:52:16;;;;;;;0.52;0.52;;;-0.50;99.90;;;;;;5076596;28;20231;-75
2024/03/09 03:54:42;;;;;;;0.80;0.80;;;-0.50;99.90;;;;;;5094552;28;20223;-75
2024/03/09 03:57:11;;;;;;;0.70;0.70;;;-0.50;99.90;;;;;;5094558;28;20568;-75
2024/03/09 03:59:40;;;;;;;0.52;0.52;;;-0.50;99.90;;;;;;5075974;28;20245;-77
2024/03/09 04:02:07;;;;;;;0.60;0.60;;;-0.50;99.90;;;;;;5084927;28;20220;-75
2024/03/09 04:04:36;;;;;;;3.38;2.97;;;-0.50;99.90;;;;;;5094129;28;20285;-76
2024/03/09 04:07:03;;;;;;;0.70;0.70;;;-0.60;99.90;;;;;;5094166;28;20683;-76
2024/03/09 04:09:28;;;;;;;0.70;0.70;;;-0.50;99.90;;;;;;5093925;28;20663;-76
2024/03/09 04:11:54;;;;;;;0.60;0.60;;;-0.50;99.90;;;;;;5093706;28;20268;-76
2024/03/09 04:14:27;;;;;;;0.70;0.70;;;-0.50;99.90;;;;;;5075970;28;20248;-75
2024/03/09 04:16:53;;;;;;;0.60;0.60;;;-0.60;99.90;;;;;;5094355;28;20688;-75
2024/03/09 04:19:20;;;;;;;0.70;0.70;;;-0.50;99.90;;;;;;5093468;28;20192;-75
2024/03/09 04:21:45;;;;;;;0.80;0.80;;;-0.50;99.90;;;;;;5092868;28;20196;-75
2024/03/09 04:24:11;;;;;;;0.70;0.70;;;-0.50;99.90;;;;;;5094024;28;20196;-75
2024/03/09 04:26:40;;;;;;;0.80;0.80;;;-0.50;99.90;;;;;;5091928;28;20204;-75
2024/03/09 04:29:06;;;;;;;0.70;0.70;;;-0.50;99.90;;;;;;5093998;28;20679;-76
2024/03/09 04:31:32;;;;;;;0.70;0.70;;;-0.50;99.90;;;;;;5075303;28;20196;-75
2024/03/09 04:34:01;;;;;;;0.70;0.70;;;-0.50;99.90;;;;;;5094068;28;20191;-79
2024/03/09 04:36:29;;;;;;;0.70;0.70;;;-0.50;99.90;;;;;;5093753;28;20261;-78
2024/03/09 04:39:00;;;;;;;0.90;0.90;;;-0.50;99.90;;;;;;5093838;28;20617;-78
2024/03/09 04:41:28;;;;;;;0.70;0.70;;;-0.50;99.90;;;;;;5093697;28;20188;-79
2024/03/09 04:43:54;;;;;;;0.70;0.70;;;-0.50;99.90;;;;;;5075528;28;20204;-78
2024/03/09 04:46:20;;;;;;;0.70;0.70;;;-0.60;99.90;;;;;;5093593;28;20208;-76
2024/03/09 04:48:45;;;;;;;0.73;0.73;;;-0.50;99.90;;;;;;5093722;28;20199;-78
2024/03/09 04:51:12;;;;;;;0.80;0.80;;;-0.60;99.90;;;;;;5093689;28;20271;-78
2024/03/09 04:53:38;;;;;;;0.80;0.80;;;-0.60;99.90;;;;;;5075261;28;20200;-78
2024/03/09 04:56:04;;;;;;;0.70;0.70;;;-0.50;99.90;;;;;;5093610;28;20798;-78
2024/03/09 04:58:30;;;;;;;0.55;0.55;;;-0.60;99.90;;;;;;5075112;28;20231;-77
2024/03/09 05:00:55;;;;;;;0.80;0.80;;;-0.60;99.90;;;;;;5093395;28;20321;-78
2024/03/09 05:03:21;;;;;;;0.85;0.85;;;-0.60;99.90;;;;;;5093174;28;20196;-75
2024/03/09 05:05:47;;;;;;;0.55;0.55;;;-0.60;99.90;;;;;;5093635;28;20208;-77
2024/03/09 05:08:13;;;;;;;0.80;0.80;;;-0.60;99.90;;;;;;5075176;28;20188;-77
2024/03/09 05:10:39;;;;;;;0.80;0.80;;;-0.60;99.90;;;;;;5092994;28;20647;-77
2024/03/09 05:13:06;;;;;;;1.05;1.05;;;-0.60;99.90;;;;;;5093274;28;20199;-77
2024/03/09 05:15:32;;;;;;;0.70;0.70;;;-0.60;99.90;;;;;;5093142;28;20198;-78
2024/03/09 05:18:02;;;;;;;0.60;0.60;;;-0.60;99.90;;;;;;5075012;28;20287;-76
2024/03/09 05:20:29;;;;;;;0.80;0.80;;;-0.60;99.90;;;;;;5092713;28;20664;-79
2024/03/09 05:23:03;;;;;;;0.77;0.77;;;-0.50;99.90;;;;;;5074741;28;20200;-77
2024/03/09 05:25:31;;;;;;;0.70;0.70;;;-0.60;99.90;;;;;;5092858;28;20207;-77
2024/03/09 05:28:00;;;;;;;0.80;0.80;;;-0.60;99.90;;;;;;5092916;28;20196;-77
2024/03/09 05:30:36;;;;;;;0.50;0.50;;;-0.60;99.90;;;;;;5092715;28;20191;-75
2024/03/09 05:33:06;;;;;;;0.60;0.60;;;-0.60;99.90;;;;;;5074223;28;20726;-78
2024/03/09 05:35:34;;;;;;;0.80;0.80;;;-0.60;99.90;;;;;;5092637;28;20245;-78
2024/03/09 05:38:08;;;;;;;0.80;0.80;;;-0.60;99.90;;;;;;5092885;28;20192;-76
2024/03/09 05:40:39;;;;;;;0.70;0.70;;;-0.60;99.90;;;;;;5092664;28;20200;-78
2024/03/09 05:43:07;;;;;;;0.60;0.60;;;-0.50;99.90;;;;;;5074561;28;20207;-78
2024/03/09 05:45:35;;;;;;;0.75;0.75;;;-0.50;99.90;;;;;;5092666;28;20211;-71
2024/03/09 05:48:01;;;;;;;0.80;0.80;;;-0.50;99.90;;;;;;5092812;28;20191;-72
2024/03/09 05:50:28;;;;;;;0.70;0.70;;;-0.50;99.90;;;;;;5074319;28;20188;-71
2024/03/09 05:52:57;;;;;;;0.70;0.70;;;-0.50;99.90;;;;;;5092659;28;20624;-72
2024/03/09 05:55:23;;;;;;;0.80;0.80;;;-0.40;99.90;;;;;;5074594;28;20192;-71
2024/03/09 05:57:50;;;;;;;0.70;0.70;;;-0.50;99.90;;;;;;5074551;28;20234;-72
2024/03/09 06:00:24;;;;;;;0.90;0.90;;;-0.40;99.90;;;;;;5108578;28;20197;-72
2024/03/09 06:02:57;;;;;;;0.90;0.90;;;-0.50;99.90;;;;;;5092464;28;20214;-73
2024/03/09 06:05:27;;;;;;;0.80;0.80;;;-0.40;99.90;;;;;;5092432;28;20230;-73
2024/03/09 06:07:54;;;;;;;0.63;0.63;;;-0.40;99.90;;;;;;5092567;28;20192;-72
2024/03/09 06:10:20;;;;;;;4.32;1.35;;;-0.40;99.90;;;;;;5092163;28;20195;-72
2024/03/09 06:12:47;;;;;;;0.82;0.82;;;-0.30;99.90;;;;;;5092442;28;20184;-71
2024/03/09 06:15:14;;;;;;;0.80;0.80;;;-0.40;99.90;;;;;;5092413;28;20576;-71
2024/03/09 06:17:44;;;;;;;0.70;0.70;;;-0.40;99.90;;;;;;5108245;28;20192;-71
2024/03/09 06:20:11;;;;;;;0.70;0.70;;;-0.30;99.90;;;;;;5087789;28;20275;-72
2024/03/09 06:22:37;;;;;;;0.70;0.70;;;-0.30;99.90;;;;;;5108032;28;20230;-71
2024/03/09 06:25:04;;;;;;;0.80;0.80;;;-0.30;99.90;;;;;;5092301;28;20258;-71
2024/03/09 06:27:29;;;;;;;0.70;0.70;;;-0.40;99.90;;;;;;5092099;28;20621;-71
2024/03/09 06:29:56;;;;;;;0.80;0.80;;;-0.30;99.90;;;;;;5092266;28;20199;-72
2024/03/09 06:32:28;;;;;;;0.75;0.75;;;-0.30;99.90;;;;;;5092126;28;20208;-72
2024/03/09 06:34:54;;;;;;;0.80;0.80;;;-0.30;99.90;;;;;;5092289;28;20192;-71
2024/03/09 06:37:22;;;;;;;0.63;0.63;;;-0.30;99.90;;;;;;5092145;28;20559;-72
2024/03/09 06:39:48;;;;;;;0.60;0.60;;;-0.30;99.90;;;;;;5074046;28;20200;-71
2024/03/09 06:42:14;;;;;;;0.60;0.60;;;-0.20;99.90;;;;;;5092105;28;20570;-71
2024/03/09 06:44:39;;;;;;;0.80;0.80;;;-0.20;99.90;;;;;;5092183;28;20196;-70
2024/03/09 06:47:08;;;;;;;0.70;0.70;;;-0.20;99.90;;;;;;5095779;28;20208;-71
2024/03/09 06:49:37;;;;;;;0.70;0.70;;;-0.10;99.90;;;;;;5095705;28;20668;-71
2024/03/09 06:52:03;;;;;;;0.57;0.57;;;-0.10;99.90;;;;;;5095889;28;20656;-71
2024/03/09 06:54:31;;;;;;;0.70;0.70;;;0.00;99.90;;;;;;5095735;28;20196;-74
2024/03/09 06:56:57;;;;;;;0.68;0.68;;;-0.10;99.90;;;;;;5077552;28;20215;-74
2024/03/09 06:59:23;;;;;;;0.65;0.65;;;0.00;99.90;;;;;;5077392;28;20203;-74
2024/03/09 07:01:57;;;;;;;0.70;0.70;;;0.00;99.90;;;;;;5095708;28;20216;-74
2024/03/09 07:04:25;;;;;;;0.77;0.77;;;0.10;99.90;;;;;;5095180;28;20192;-74
2024/03/09 07:06:52;;;;;;;0.60;0.60;;;0.10;99.90;;;;;;5111358;28;20300;-74
2024/03/09 07:09:19;;;;;;;0.60;0.60;;;0.10;99.90;;;;;;5077304;28;20192;-73
2024/03/09 07:11:46;;;;;;;0.60;0.60;;;0.20;99.90;;;;;;5095574;28;20246;-74
2024/03/09 07:14:12;;;;;;;0.68;0.68;;;0.20;99.90;;;;;;5095206;28;20196;-74
2024/03/09 07:16:37;;;;;;;0.70;0.70;;;0.30;99.90;;;;;;5077037;28;20192;-74
2024/03/09 07:19:04;;;;;;;0.90;0.90;;;0.30;99.90;;;;;;5095321;28;20663;-73
2024/03/09 07:21:30;;;;;;;0.80;0.80;;;0.30;99.90;;;;;;5095109;28;20707;-74
2024/03/09 07:23:58;;;;;;;0.70;0.70;;;0.30;99.90;;;;;;5095343;28;20571;-74
2024/03/09 07:26:25;;;;;;;0.90;0.90;;;0.30;99.90;;;;;;5094986;28;20204;-74
2024/03/09 07:28:53;;;;;;;0.60;0.60;;;0.40;99.90;;;;;;5095342;28;20207;-74
2024/03/09 07:31:22;;;;;;;1.42;1.33;;;0.40;99.90;;;;;;5095149;28;20216;-74
2024/03/09 07:33:50;;;;;;;0.70;0.70;;;0.40;99.90;;;;;;5110762;28;20563;-74
2024/03/09 07:36:18;;;;;;;1.10;1.08;;;0.40;99.90;;;;;;5076974;28;20193;-74
2024/03/09 07:38:46;;;;;;;0.70;0.70;;;0.40;99.90;;;;;;5095259;28;20648;-74
2024/03/09 07:41:11;;;;;;;0.70;0.70;;;0.50;99.90;;;;;;5076761;28;20192;-72
2024/03/09 07:43:38;;;;;;;0.70;0.70;;;0.50;99.90;;;;;;5095062;28;20192;-73
2024/03/09 07:46:04;;;;;;;0.77;0.77;;;0.50;99.90;;;;;;5095277;28;20204;-73
2024/03/09 07:48:30;;;;;;;0.80;0.80;;;0.60;99.90;;;;;;5094793;28;20551;-72
2024/03/09 07:50:56;;;;;;;0.80;0.80;;;0.70;99.90;;;;;;5095296;28;20192;-72
2024/03/09 07:53:22;;;;;;;0.80;0.80;;;0.80;99.90;;;;;;5095370;28;20189;-73
2024/03/09 07:55:47;;;;;;;0.80;0.80;;;0.80;99.90;;;;;;5095913;28;20530;-73
2024/03/09 07:58:13;;;;;;;0.77;0.77;;;0.90;99.90;;;;;;5095076;28;20210;-72
2024/03/09 08:00:39;;;;;;;0.70;0.70;;;1.00;99.90;;;;;;5094224;28;20192;-73
2024/03/09 08:03:05;;;;;;;0.68;0.68;;;0.90;99.90;;;;;;5094435;28;20196;-74
2024/03/09 08:05:31;;;;;;;0.70;0.70;;;0.90;99.90;;;;;;5094325;28;20242;-74
2024/03/09 08:08:02;;;;;;;0.80;0.80;;;1.00;99.90;;;;;;5094422;28;20188;-75
2024/03/09 08:10:28;;;;;;;0.75;0.75;;;1.10;99.90;;;;;;5093616;28;20207;-74
2024/03/09 08:12:56;;;;;;;0.63;0.63;;;1.20;99.90;;;;;;5094206;28;20598;-78
2024/03/09 08:15:22;;;;;;;0.60;0.60;;;1.20;99.90;;;;;;5094053;28;20187;-75
2024/03/09 08:17:48;;;;;;;0.70;0.70;;;1.20;99.90;;;;;;5094220;28;20272;-77
2024/03/09 08:20:14;;;;;;;0.70;0.70;;;1.30;99.90;;;;;;5094031;28;20679;-76
2024/03/09 08:22:41;;;;;;;0.70;0.70;;;1.20;99.90;;;;;;5094296;28;20204;-76
2024/03/09 08:25:08;;;;;;;0.60;0.60;;;1.30;99.90;;;;;;5093898;28;20223;-75
2024/03/09 08:27:38;;;;;;;0.70;0.70;;;1.40;99.90;;;;;;5093791;28;20254;-75
2024/03/09 08:30:14;;;;;;;0.65;0.65;;;1.30;99.90;;;;;;5093880;28;20268;-77
2024/03/09 08:32:44;;;;;;;0.80;0.80;;;1.40;99.90;;;;;;5093767;28;20245;-75
2024/03/09 08:35:18;;;;;;;0.60;0.60;;;1.50;99.90;;;;;;5109557;28;20226;-75
2024/03/09 08:37:45;;;;;;;0.60;0.60;;;1.40;99.90;;;;;;5093758;28;20656;-74
2024/03/09 08:40:16;;;;;;;0.77;0.77;;;1.40;99.90;;;;;;5093791;28;20265;-75
2024/03/09 08:42:47;;;;;;;0.80;0.80;;;1.40;99.90;;;;;;5093593;28;20715;-74
2024/03/09 08:45:14;;;;;;;0.98;0.98;;;1.50;99.90;;;;;;5093882;28;20180;-74
2024/03/09 08:47:41;;;;;;;0.77;0.77;;;1.60;99.90;;;;;;5093831;28;20196;-74
2024/03/09 08:50:10;;;;;;;0.80;0.80;;;1.60;99.90;;;;;;5093583;28;20188;-77
2024/03/09 08:52:37;;;;;;;0.70;0.70;;;1.70;99.90;;;;;;5093682;28;20199;-76
2024/03/09 08:55:03;;;;;;;0.80;0.80;;;1.60;99.90;;;;;;5093469;28;20276;-76
2024/03/09 08:57:29;;;;;;;1.70;1.60;;;1.70;99.90;;;;;;5100258;28;20232;-76
2024/03/09 08:59:59;;;;;;;0.70;0.70;;;1.60;99.90;;;;;;5095787;28;20601;-77
2024/03/09 09:02:28;;;;;;;0.77;0.77;;;1.60;99.90;;;;;;5113624;28;20219;-77
2024/03/09 09:04:54;;;;;;;0.60;0.60;;;1.70;99.90;;;;;;5113869;28;20332;-77
2024/03/09 09:07:19;;;;;;;0.88;0.88;;;1.90;99.90;;;;;;5106272;28;20294;-76
2024/03/09 09:09:45;;;;;;;0.80;0.80;;;2.00;99.90;;;;;;5093891;28;20196;-76
2024/03/09 09:12:11;;;;;;;0.80;0.80;;;2.10;99.90;;;;;;5094624;28;20184;-76
2024/03/09 09:14:39;;;;;;;0.80;0.80;;;2.10;99.90;;;;;;5099574;28;20729;-73
2024/03/09 09:17:09;;;;;;;0.80;0.80;;;2.30;99.90;;;;;;5093187;28;20664;-73
2024/03/09 09:19:35;;;;;;;0.80;0.80;;;2.50;99.90;;;;;;5092888;28;20203;-73
2024/03/09 09:22:02;;;;;;;0.90;0.90;;;2.50;99.90;;;;;;5093047;28;20680;-73
2024/03/09 09:24:29;;;;;;;0.70;0.70;;;2.50;99.90;;;;;;5074589;28;20199;-73
2024/03/09 09:26:55;;;;;;;0.70;0.70;;;2.70;99.90;;;;;;5092885;28;20215;-72
2024/03/09 09:29:20;;;;;;;0.80;0.80;;;2.90;99.90;;;;;;5092787;28;20527;-73
2024/03/09 09:31:46;;;;;;;0.60;0.60;;;3.00;99.90;;;;;;5074865;28;20196;-72
2024/03/09 09:34:12;;;;;;;0.68;0.68;;;2.90;99.90;;;;;;5074796;28;20188;-73
2024/03/09 09:36:38;;;;;;;1.00;1.00;;;3.10;99.90;;;;;;5074598;28;20200;-73
2024/03/09 09:39:04;;;;;;;0.82;0.82;;;2.90;99.90;;;;;;5092859;28;20204;-73
2024/03/09 09:41:30;;;;;;;0.90;0.90;;;2.80;99.90;;;;;;5092598;28;20671;-74
2024/03/09 09:43:57;;;;;;;0.90;0.90;;;2.70;99.90;;;;;;5092678;28;20609;-74
2024/03/09 09:46:25;;;;;;;0.70;0.70;;;3.00;99.90;;;;;;5092377;28;20691;-73
2024/03/09 09:48:52;;;;;;;0.70;0.70;;;3.50;99.90;;;;;;5092662;28;20192;-74
2024/03/09 09:51:25;;;;;;;3.92;1.70;;;3.90;99.90;;;;;;5092664;28;20184;-74
2024/03/09 09:53:54;;;;;;;0.80;0.80;;;3.90;99.90;;;;;;5092549;28;20242;-73
2024/03/09 09:56:23;;;;;;;0.70;0.70;;;3.50;99.90;;;;;;5092528;28;20192;-73
2024/03/09 09:58:49;;;;;;;0.70;0.70;;;3.20;99.90;;;;;;5092617;28;20234;-73
2024/03/09 10:01:20;;;;;;;0.75;0.75;;;3.20;99.90;;;;;;5092292;28;20246;-73
2024/03/09 10:03:47;;;;;;;0.70;0.70;;;3.00;99.90;;;;;;5065563;28;20196;-72
2024/03/09 10:06:23;;;;;;;0.98;0.95;;;2.90;99.90;;;;;;5072180;28;20209;-72
2024/03/09 10:08:53;;;;;;;0.70;0.70;;;2.60;99.90;;;;;;5072279;28;20730;-73
2024/03/09 10:11:24;;;;;;;0.60;0.60;;;2.50;99.90;;;;;;5054153;28;20192;-73
2024/03/09 10:13:58;;;;;;;0.88;0.88;;;2.50;99.90;;;;;;5072180;28;20193;-74
2024/03/09 10:16:28;;;;;;;0.70;0.70;;;2.20;99.90;;;;;;5072062;28;20656;-73
2024/03/09 10:18:56;;;;;;;1.33;1.23;;;2.20;99.90;;;;;;5072313;28;20191;-74
2024/03/09 10:21:39;;;;;;;0.95;0.95;;;2.10;99.90;;;;;;5074974;28;20683;-73
2024/03/09 10:24:07;;;;;;;0.65;0.65;;;2.10;99.90;;;;;;5076259;28;20204;-74
2024/03/09 10:26:36;;;;;;;1.00;1.00;;;2.10;99.90;;;;;;5075772;28;20257;-73
2024/03/09 10:29:03;;;;;;;0.80;0.80;;;2.10;99.90;;;;;;5076000;28;20185;-74
2024/03/09 10:31:30;;;;;;;0.70;0.70;;;2.10;99.90;;;;;;5075856;28;20181;-73
2024/03/09 10:33:58;;;;;;;0.73;0.73;;;2.10;99.90;;;;;;5076007;28;20595;-74
2024/03/09 10:36:25;;;;;;;0.90;0.90;;;2.10;99.90;;;;;;5057799;28;20207;-74
2024/03/09 10:38:54;;;;;;;1.05;1.00;;;2.10;99.90;;;;;;5076003;28;20668;-74
2024/03/09 10:41:24;;;;;;;0.80;0.80;;;2.10;99.90;;;;;;5057700;28;20203;-74
2024/03/09 10:43:55;;;;;;;3.35;1.40;;;2.20;99.90;;;;;;5060139;28;20203;-74
2024/03/09 10:46:27;;;;;;;0.60;0.60;;;2.30;99.90;;;;;;5095808;28;20623;-77
2024/03/09 10:48:57;;;;;;;0.65;0.65;;;2.00;99.90;;;;;;5095863;28;20184;-72
2024/03/09 10:51:46;;;;;;;0.75;0.75;;;2.00;99.90;;;;;;5095846;28;20597;-72
2024/03/09 10:54:31;;;;;;;0.60;0.60;;;1.90;99.90;;;;;;5095488;28;20185;-73
2024/03/09 10:57:01;;;;;;;0.80;0.80;;;1.90;99.90;;;;;;5095866;28;20191;-69
2024/03/09 10:59:27;;;;;;;0.70;0.70;;;1.80;99.90;;;;;;5091585;28;20197;-70
2024/03/09 11:01:55;;;;;;;0.70;0.70;;;1.90;99.90;;;;;;5067775;28;20710;-71
2024/03/09 11:04:21;;;;;;;0.80;0.80;;;1.80;99.90;;;;;;5095569;28;20609;-71
2024/03/09 11:06:47;;;;;;;0.88;0.88;;;1.80;99.90;;;;;;5095627;28;20231;-71
2024/03/09 11:09:18;;;;;;;0.80;0.80;;;1.80;99.90;;;;;;5095506;28;20184;-71
2024/03/09 11:11:46;;;;;;;0.70;0.70;;;1.70;99.90;;;;;;5077202;28;20192;-72
2024/03/09 11:14:22;;;;;;;0.75;0.75;;;1.80;99.90;;;;;;5077293;28;20664;-72
2024/03/09 11:16:52;;;;;;;0.65;0.65;;;1.80;99.90;;;;;;5095382;28;20188;-72
2024/03/09 11:19:19;;;;;;;0.90;0.90;;;1.80;99.90;;;;;;5093619;28;20201;-71
2024/03/09 11:21:48;;;;;;;0.90;0.90;;;1.70;99.90;;;;;;5095240;28;20207;-71
2024/03/09 11:24:14;;;;;;;0.80;0.80;;;1.70;99.90;;;;;;5095501;28;20536;-72
2024/03/09 11:26:52;;;;;;;0.70;0.70;;;1.70;99.90;;;;;;5094993;28;20207;-72
2024/03/09 11:29:25;;;;;;;0.70;0.70;;;1.60;99.90;;;;;;5093729;28;20337;-72
2024/03/09 11:31:58;;;;;;;0.70;0.70;;;1.60;99.90;;;;;;5094582;28;20208;-72
2024/03/09 11:34:26;;;;;;;0.80;0.80;;;1.60;99.90;;;;;;5094896;28;20196;-71
2024/03/09 11:37:00;;;;;;;2.08;1.85;;;1.50;99.90;;;;;;5095091;28;20196;-72
2024/03/09 11:39:33;;;;;;;0.75;0.75;;;1.50;99.90;;;;;;5094579;28;20708;-73
2024/03/09 11:42:08;;;;;;;0.70;0.70;;;1.50;99.90;;;;;;5080402;28;20203;-72
2024/03/09 11:44:36;;;;;;;0.90;0.90;;;1.60;99.90;;;;;;5115080;28;20659;-73
2024/03/09 11:47:06;;;;;;;0.55;0.55;;;1.50;99.90;;;;;;5115294;28;20203;-73
2024/03/09 11:49:36;;;;;;;0.70;0.70;;;1.50;99.90;;;;;;5115064;28;20194;-73
2024/03/09 11:52:05;;;;;;;0.80;0.80;;;1.40;99.90;;;;;;5115251;28;20651;-74
2024/03/09 11:54:32;;;;;;;0.77;0.77;;;1.40;99.90;;;;;;5115498;28;20199;-72
2024/03/09 11:56:59;;;;;;;0.70;0.70;;;1.30;99.90;;;;;;5113746;28;20604;-73
2024/03/09 11:59:25;;;;;;;0.70;0.70;;;1.30;99.90;;;;;;5130771;27;20703;-74
2024/03/09 12:01:59;;;;;;;1.00;1.00;;;1.30;99.90;;;;;;5096659;28;20279;-73
2024/03/09 12:04:26;;;;;;;0.90;0.90;;;1.40;99.90;;;;;;5096815;28;20698;-74
2024/03/09 12:06:53;;;;;;;0.90;0.90;;;1.20;99.90;;;;;;5114860;28;20256;-73
2024/03/09 12:09:18;;;;;;;0.75;0.75;;;1.10;99.90;;;;;;5114799;28;20187;-73
2024/03/09 12:11:46;;;;;;;0.70;0.70;;;1.10;99.90;;;;;;5114813;28;20203;-73
2024/03/09 12:14:12;;;;;;;0.65;0.65;;;1.10;99.90;;;;;;5114711;28;20194;-75
2024/03/09 12:16:40;;;;;;;0.82;0.82;;;1.20;99.90;;;;;;5114592;28;20534;-73
2024/03/09 12:19:06;;;;;;;0.70;0.70;;;1.20;99.90;;;;;;5114652;28;20195;-73
2024/03/09 12:21:36;;;;;;;0.70;0.70;;;1.20;99.90;;;;;;5114389;28;20648;-73
2024/03/09 12:24:02;;;;;;;0.57;0.57;;;1.20;99.90;;;;;;5114524;28;20195;-73
2024/03/09 12:26:28;;;;;;;0.60;0.60;;;1.20;99.90;;;;;;5114257;28;20608;-73
2024/03/09 12:28:57;;;;;;;0.90;0.90;;;1.10;99.90;;;;;;5114481;28;20191;-73
2024/03/09 12:31:24;;;;;;;0.70;0.70;;;1.10;99.90;;;;;;5114333;28;20656;-74
2024/03/09 12:33:51;;;;;;;0.63;0.63;;;1.10;99.90;;;;;;5114464;28;20187;-74
2024/03/09 12:36:20;;;;;;;0.70;0.70;;;1.20;99.90;;;;;;5114388;28;20219;-73
2024/03/09 12:38:50;;;;;;;0.73;0.73;;;1.40;99.90;;;;;;5114469;28;20276;-72
2024/03/09 12:41:31;;;;;;;0.85;0.85;;;1.50;99.90;;;;;;5114271;28;20274;-72
2024/03/09 12:44:05;;;;;;;0.60;0.60;;;1.40;99.90;;;;;;5113302;28;20195;-72
2024/03/09 12:46:32;;;;;;;0.70;0.70;;;1.50;99.90;;;;;;5113955;28;20207;-72
2024/03/09 12:49:11;;;;;;;0.77;0.77;;;1.50;99.90;;;;;;5114283;28;20187;-73
2024/03/09 12:51:38;;;;;;;0.70;0.70;;;1.60;99.90;;;;;;5095287;28;20204;-73
2024/03/09 12:54:08;;;;;;;0.68;0.68;;;1.50;99.90;;;;;;5111928;27;20285;-73
2024/03/09 12:56:35;;;;;;;0.90;0.90;;;1.50;99.90;;;;;;5134377;27;20194;-73